aviador You're here:

DXNG Decoded Metar

NIATOUGOU in TOGO
Report Time2018-07-23 11:00:00
UTC Time2018-07-23 11:43:06
Flight Rules ifr IFR
Wind270° at 07 kt
W.Decomp.*RWY 21: 3.2 kt HW 6.2 kt RCW
W.Rank270° ranks 7
Current wind is above 270° avg. (5.3)
Visibility9999 m
Phenomena:N/A
Clouds:Broken 007 Hf
Expected CloudBase > 2,400 ft AGL from Temp-Dew spread
Ceiling700 ft
Temp27°C (ISA +14)
Dew Point21°C (70% RH)
Heat Index28.9°C
QNH1018 hPa
Density Alt2,930 ft
Elevation1,125 ft
Report Wrong Elevation
Raw Report
DXNG 231100Z 27007KT 230V300 9999 BKN007 27/21 Q1018 NOSIG=

Extra information for DXNG:More info

Metar Taf Metar & Taf Last 4 Metars F.Rules Stats Wind Profile Meteogram Temp Stats Airport Information Weather charts Add Link Nearby VenuesMetar ALERT Operation Metar Decoded Social comments